sensor_id;sensor_type;location;lat;lon;timestamp;temperature;humidity
18948;DHT22;9607;51.600;7.558;2022-08-21T00:06:18;15.60;99.90
18948;DHT22;9607;51.600;7.558;2022-08-21T00:29:30;15.40;99.90
18948;DHT22;9607;51.600;7.558;2022-08-21T00:31:58;15.40;99.90
18948;DHT22;9607;51.600;7.558;2022-08-21T00:34:25;15.40;99.90
18948;DHT22;9607;51.600;7.558;2022-08-21T00:36:52;15.50;99.90
18948;DHT22;9607;51.600;7.558;2022-08-21T00:44:25;15.60;99.90
18948;DHT22;9607;51.600;7.558;2022-08-21T00:59:52;15.60;99.90
18948;DHT22;9607;51.600;7.558;2022-08-21T01:02:57;15.50;99.90
18948;DHT22;9607;51.600;7.558;2022-08-21T01:36:32;15.40;99.90
18948;DHT22;9607;51.600;7.558;2022-08-21T01:59:43;15.80;99.90
18948;DHT22;9607;51.600;7.558;2022-08-21T02:02:10;15.80;99.90
18948;DHT22;9607;51.600;7.558;2022-08-21T02:08:18;15.80;99.90
18948;DHT22;9607;51.600;7.558;2022-08-21T02:10:49;15.70;99.90
18948;DHT22;9607;51.600;7.558;2022-08-21T02:13:16;15.60;99.90
18948;DHT22;9607;51.600;7.558;2022-08-21T02:15:44;15.60;99.90
18948;DHT22;9607;51.600;7.558;2022-08-21T02:18:11;15.40;99.90
18948;DHT22;9607;51.600;7.558;2022-08-21T02:20:41;15.40;99.90
18948;DHT22;9607;51.600;7.558;2022-08-21T02:23:10;15.30;99.90
18948;DHT22;9607;51.600;7.558;2022-08-21T02:25:37;15.20;99.90
18948;DHT22;9607;51.600;7.558;2022-08-21T02:28:06;15.10;99.90
18948;DHT22;9607;51.600;7.558;2022-08-21T02:30:36;15.00;99.90
18948;DHT22;9607;51.600;7.558;2022-08-21T02:33:06;15.00;99.90
18948;DHT22;9607;51.600;7.558;2022-08-21T02:35:33;14.90;99.90
18948;DHT22;9607;51.600;7.558;2022-08-21T02:38:03;14.90;99.90
18948;DHT22;9607;51.600;7.558;2022-08-21T02:40:32;14.80;99.90
18948;DHT22;9607;51.600;7.558;2022-08-21T02:43:00;14.80;99.90
18948;DHT22;9607;51.600;7.558;2022-08-21T02:45:27;14.70;99.90
18948;DHT22;9607;51.600;7.558;2022-08-21T02:47:56;14.70;99.90
18948;DHT22;9607;51.600;7.558;2022-08-21T02:50:27;14.60;99.90
18948;DHT22;9607;51.600;7.558;2022-08-21T02:52:55;14.60;99.90
18948;DHT22;9607;51.600;7.558;2022-08-21T02:55:24;14.50;99.90
18948;DHT22;9607;51.600;7.558;2022-08-21T02:57:52;14.50;99.90
18948;DHT22;9607;51.600;7.558;2022-08-21T03:00:20;14.50;99.90
18948;DHT22;9607;51.600;7.558;2022-08-21T03:02:47;14.40;99.90
18948;DHT22;9607;51.600;7.558;2022-08-21T03:05:14;14.40;99.90
18948;DHT22;9607;51.600;7.558;2022-08-21T03:07:44;14.30;99.90
18948;DHT22;9607;51.600;7.558;2022-08-21T03:10:11;14.30;99.90
18948;DHT22;9607;51.600;7.558;2022-08-21T03:12:38;14.20;99.90
18948;DHT22;9607;51.600;7.558;2022-08-21T03:15:08;14.20;99.90
18948;DHT22;9607;51.600;7.558;2022-08-21T03:17:36;14.20;99.90
18948;DHT22;9607;51.600;7.558;2022-08-21T03:20:03;14.10;99.90
18948;DHT22;9607;51.600;7.558;2022-08-21T03:22:31;14.10;99.90
18948;DHT22;9607;51.600;7.558;2022-08-21T03:24:59;14.10;99.90
18948;DHT22;9607;51.600;7.558;2022-08-21T03:27:26;14.10;99.90
18948;DHT22;9607;51.600;7.558;2022-08-21T03:29:53;14.10;99.90
18948;DHT22;9607;51.600;7.558;2022-08-21T03:32:20;14.00;99.90
18948;DHT22;9607;51.600;7.558;2022-08-21T03:34:47;14.00;99.90
18948;DHT22;9607;51.600;7.558;2022-08-21T03:37:15;14.00;99.90
18948;DHT22;9607;51.600;7.558;2022-08-21T03:39:43;14.00;99.90
18948;DHT22;9607;51.600;7.558;2022-08-21T03:42:11;14.00;99.90
18948;DHT22;9607;51.600;7.558;2022-08-21T03:44:38;13.90;99.90
18948;DHT22;9607;51.600;7.558;2022-08-21T03:47:06;13.90;99.90
18948;DHT22;9607;51.600;7.558;2022-08-21T03:49:32;13.80;99.90
18948;DHT22;9607;51.600;7.558;2022-08-21T03:52:00;13.80;99.90
18948;DHT22;9607;51.600;7.558;2022-08-21T03:54:27;13.70;99.90
18948;DHT22;9607;51.600;7.558;2022-08-21T03:56:54;13.70;99.90
18948;DHT22;9607;51.600;7.558;2022-08-21T03:59:23;13.60;99.90
18948;DHT22;9607;51.600;7.558;2022-08-21T04:01:54;13.60;99.90
18948;DHT22;9607;51.600;7.558;2022-08-21T04:04:21;13.60;99.90
18948;DHT22;9607;51.600;7.558;2022-08-21T04:06:48;13.60;99.90
18948;DHT22;9607;51.600;7.558;2022-08-21T04:09:15;13.60;99.90
18948;DHT22;9607;51.600;7.558;2022-08-21T04:11:42;13.60;99.90
18948;DHT22;9607;51.600;7.558;2022-08-21T04:14:09;13.60;99.90
18948;DHT22;9607;51.600;7.558;2022-08-21T04:16:37;13.50;99.90
18948;DHT22;9607;51.600;7.558;2022-08-21T04:19:04;13.50;99.90
18948;DHT22;9607;51.600;7.558;2022-08-21T04:21:31;13.50;99.90
18948;DHT22;9607;51.600;7.558;2022-08-21T04:23:58;13.50;99.90
18948;DHT22;9607;51.600;7.558;2022-08-21T04:26:25;13.50;99.90
18948;DHT22;9607;51.600;7.558;2022-08-21T04:28:52;13.50;99.90
18948;DHT22;9607;51.600;7.558;2022-08-21T04:31:19;13.40;99.90
18948;DHT22;9607;51.600;7.558;2022-08-21T04:33:48;13.50;99.90
18948;DHT22;9607;51.600;7.558;2022-08-21T04:36:15;13.50;99.90
18948;DHT22;9607;51.600;7.558;2022-08-21T04:38:41;13.40;99.90
18948;DHT22;9607;51.600;7.558;2022-08-21T04:41:08;13.40;99.90
18948;DHT22;9607;51.600;7.558;2022-08-21T04:43:35;13.30;99.90
18948;DHT22;9607;51.600;7.558;2022-08-21T04:46:02;13.30;99.90
18948;DHT22;9607;51.600;7.558;2022-08-21T04:48:29;13.30;99.90
18948;DHT22;9607;51.600;7.558;2022-08-21T04:51:00;13.30;99.90
18948;DHT22;9607;51.600;7.558;2022-08-21T04:53:32;13.20;99.90
18948;DHT22;9607;51.600;7.558;2022-08-21T04:56:03;13.30;99.90
18948;DHT22;9607;51.600;7.558;2022-08-21T04:58:31;13.30;99.90
18948;DHT22;9607;51.600;7.558;2022-08-21T05:01:00;13.30;99.90
18948;DHT22;9607;51.600;7.558;2022-08-21T05:03:29;13.30;99.90
18948;DHT22;9607;51.600;7.558;2022-08-21T05:05:58;13.40;99.90
18948;DHT22;9607;51.600;7.558;2022-08-21T05:08:27;13.40;99.90
18948;DHT22;9607;51.600;7.558;2022-08-21T05:10:54;13.40;99.90
18948;DHT22;9607;51.600;7.558;2022-08-21T05:13:21;13.50;99.90
18948;DHT22;9607;51.600;7.558;2022-08-21T05:15:48;13.50;99.90
18948;DHT22;9607;51.600;7.558;2022-08-21T05:18:15;13.50;99.90
18948;DHT22;9607;51.600;7.558;2022-08-21T05:20:42;13.50;99.90
18948;DHT22;9607;51.600;7.558;2022-08-21T05:23:13;13.60;99.90
18948;DHT22;9607;51.600;7.558;2022-08-21T05:25:41;13.70;99.90
18948;DHT22;9607;51.600;7.558;2022-08-21T05:28:08;13.70;99.90
18948;DHT22;9607;51.600;7.558;2022-08-21T05:30:36;13.80;99.90
18948;DHT22;9607;51.600;7.558;2022-08-21T05:33:05;13.90;99.90
18948;DHT22;9607;51.600;7.558;2022-08-21T05:35:33;13.90;99.90
18948;DHT22;9607;51.600;7.558;2022-08-21T05:38:00;14.00;99.90
18948;DHT22;9607;51.600;7.558;2022-08-21T05:40:29;14.10;99.90
18948;DHT22;9607;51.600;7.558;2022-08-21T05:42:56;14.20;99.90
18948;DHT22;9607;51.600;7.558;2022-08-21T05:45:26;14.30;99.90
18948;DHT22;9607;51.600;7.558;2022-08-21T05:47:53;14.40;99.90
18948;DHT22;9607;51.600;7.558;2022-08-21T05:50:21;14.40;99.90
18948;DHT22;9607;51.600;7.558;2022-08-21T05:52:47;14.50;99.90
18948;DHT22;9607;51.600;7.558;2022-08-21T05:55:14;14.60;99.90
18948;DHT22;9607;51.600;7.558;2022-08-21T05:57:43;14.70;99.90
18948;DHT22;9607;51.600;7.558;2022-08-21T06:00:10;14.80;99.90
18948;DHT22;9607;51.600;7.558;2022-08-21T06:02:38;14.80;99.90
18948;DHT22;9607;51.600;7.558;2022-08-21T06:05:05;14.90;99.90
18948;DHT22;9607;51.600;7.558;2022-08-21T06:07:32;15.00;99.90
18948;DHT22;9607;51.600;7.558;2022-08-21T06:09:59;15.10;99.90
18948;DHT22;9607;51.600;7.558;2022-08-21T06:12:26;15.10;99.90
18948;DHT22;9607;51.600;7.558;2022-08-21T06:14:54;15.20;99.90
18948;DHT22;9607;51.600;7.558;2022-08-21T06:17:22;15.30;99.90
18948;DHT22;9607;51.600;7.558;2022-08-21T06:19:51;15.40;99.90
18948;DHT22;9607;51.600;7.558;2022-08-21T06:22:18;15.50;99.90
18948;DHT22;9607;51.600;7.558;2022-08-21T06:24:45;15.60;99.90
18948;DHT22;9607;51.600;7.558;2022-08-21T06:27:12;15.70;99.90
18948;DHT22;9607;51.600;7.558;2022-08-21T06:29:41;15.70;99.90
18948;DHT22;9607;51.600;7.558;2022-08-21T06:32:10;15.80;99.90
18948;DHT22;9607;51.600;7.558;2022-08-21T06:34:38;15.90;99.90
18948;DHT22;9607;51.600;7.558;2022-08-21T06:37:05;16.00;99.90
18948;DHT22;9607;51.600;7.558;2022-08-21T06:39:33;16.10;99.90
18948;DHT22;9607;51.600;7.558;2022-08-21T06:42:00;16.20;99.90
18948;DHT22;9607;51.600;7.558;2022-08-21T06:44:27;16.30;99.90
18948;DHT22;9607;51.600;7.558;2022-08-21T06:46:53;16.40;99.90
18948;DHT22;9607;51.600;7.558;2022-08-21T06:49:23;16.50;99.90
18948;DHT22;9607;51.600;7.558;2022-08-21T06:51:50;16.70;99.90
18948;DHT22;9607;51.600;7.558;2022-08-21T06:54:17;16.80;99.90
18948;DHT22;9607;51.600;7.558;2022-08-21T06:56:44;16.90;99.90
18948;DHT22;9607;51.600;7.558;2022-08-21T06:59:10;17.00;99.90
18948;DHT22;9607;51.600;7.558;2022-08-21T07:01:37;17.10;99.90
18948;DHT22;9607;51.600;7.558;2022-08-21T07:04:04;17.20;99.90
18948;DHT22;9607;51.600;7.558;2022-08-21T07:06:32;17.30;99.90
18948;DHT22;9607;51.600;7.558;2022-08-21T07:08:59;17.40;99.90
18948;DHT22;9607;51.600;7.558;2022-08-21T07:11:28;17.50;99.90
18948;DHT22;9607;51.600;7.558;2022-08-21T07:13:55;17.70;99.90
18948;DHT22;9607;51.600;7.558;2022-08-21T07:16:23;17.70;99.90
18948;DHT22;9607;51.600;7.558;2022-08-21T07:18:50;17.80;99.90
18948;DHT22;9607;51.600;7.558;2022-08-21T07:21:16;18.00;99.90
18948;DHT22;9607;51.600;7.558;2022-08-21T07:23:48;18.10;99.90
18948;DHT22;9607;51.600;7.558;2022-08-21T07:26:18;18.20;99.90
18948;DHT22;9607;51.600;7.558;2022-08-21T07:28:46;18.30;99.90
18948;DHT22;9607;51.600;7.558;2022-08-21T07:31:15;18.40;99.90
18948;DHT22;9607;51.600;7.558;2022-08-21T07:33:43;18.40;99.90
18948;DHT22;9607;51.600;7.558;2022-08-21T07:36:10;18.50;99.90
18948;DHT22;9607;51.600;7.558;2022-08-21T07:38:39;18.50;99.90
18948;DHT22;9607;51.600;7.558;2022-08-21T07:41:13;18.60;99.90
18948;DHT22;9607;51.600;7.558;2022-08-21T07:43:41;18.70;99.90
18948;DHT22;9607;51.600;7.558;2022-08-21T07:46:08;18.80;99.90
18948;DHT22;9607;51.600;7.558;2022-08-21T07:48:35;18.90;99.90
18948;DHT22;9607;51.600;7.558;2022-08-21T07:51:06;19.00;99.90
18948;DHT22;9607;51.600;7.558;2022-08-21T07:53:33;19.00;99.90
18948;DHT22;9607;51.600;7.558;2022-08-21T07:56:01;19.20;99.90
18948;DHT22;9607;51.600;7.558;2022-08-21T07:58:30;19.20;99.90
18948;DHT22;9607;51.600;7.558;2022-08-21T08:00:57;19.40;99.90
18948;DHT22;9607;51.600;7.558;2022-08-21T08:03:24;19.50;99.90
18948;DHT22;9607;51.600;7.558;2022-08-21T08:05:51;19.60;99.90
18948;DHT22;9607;51.600;7.558;2022-08-21T08:08:18;19.60;99.90
18948;DHT22;9607;51.600;7.558;2022-08-21T08:10:45;19.80;99.90
18948;DHT22;9607;51.600;7.558;2022-08-21T08:13:12;19.90;99.90
18948;DHT22;9607;51.600;7.558;2022-08-21T08:15:41;20.00;99.90
18948;DHT22;9607;51.600;7.558;2022-08-21T08:18:07;20.00;99.90
18948;DHT22;9607;51.600;7.558;2022-08-21T08:20:34;20.10;99.90
18948;DHT22;9607;51.600;7.558;2022-08-21T08:23:01;20.20;99.90
18948;DHT22;9607;51.600;7.558;2022-08-21T08:25:28;20.30;99.90
18948;DHT22;9607;51.600;7.558;2022-08-21T08:27:55;20.40;99.90
18948;DHT22;9607;51.600;7.558;2022-08-21T08:30:22;20.50;99.90
18948;DHT22;9607;51.600;7.558;2022-08-21T08:32:50;20.60;99.90
18948;DHT22;9607;51.600;7.558;2022-08-21T08:35:17;20.70;99.90
18948;DHT22;9607;51.600;7.558;2022-08-21T08:37:44;20.70;99.90
18948;DHT22;9607;51.600;7.558;2022-08-21T08:40:14;20.90;99.90
18948;DHT22;9607;51.600;7.558;2022-08-21T08:42:45;20.90;99.90
18948;DHT22;9607;51.600;7.558;2022-08-21T08:45:15;21.00;99.90
18948;DHT22;9607;51.600;7.558;2022-08-21T08:47:45;21.20;99.90
18948;DHT22;9607;51.600;7.558;2022-08-21T08:50:18;21.30;99.90
18948;DHT22;9607;51.600;7.558;2022-08-21T08:52:49;21.40;99.90
18948;DHT22;9607;51.600;7.558;2022-08-21T08:55:21;21.50;99.90
18948;DHT22;9607;51.600;7.558;2022-08-21T08:57:51;21.60;99.90
18948;DHT22;9607;51.600;7.558;2022-08-21T09:00:21;21.50;99.90
18948;DHT22;9607;51.600;7.558;2022-08-21T09:02:52;21.50;99.90
18948;DHT22;9607;51.600;7.558;2022-08-21T09:05:25;21.50;99.90
18948;DHT22;9607;51.600;7.558;2022-08-21T09:10:51;21.50;99.90
18948;DHT22;9607;51.600;7.558;2022-08-21T09:13:23;21.50;99.90
18948;DHT22;9607;51.600;7.558;2022-08-21T09:15:55;21.60;99.90
18948;DHT22;9607;51.600;7.558;2022-08-21T09:18:37;21.60;99.10
18948;DHT22;9607;51.600;7.558;2022-08-21T09:21:17;21.70;99.00
18948;DHT22;9607;51.600;7.558;2022-08-21T09:23:53;21.70;99.30
18948;DHT22;9607;51.600;7.558;2022-08-21T09:26:24;21.80;99.00
18948;DHT22;9607;51.600;7.558;2022-08-21T09:28:53;21.80;98.20
18948;DHT22;9607;51.600;7.558;2022-08-21T09:31:23;21.90;97.40
18948;DHT22;9607;51.600;7.558;2022-08-21T09:33:57;21.90;97.00
18948;DHT22;9607;51.600;7.558;2022-08-21T09:36:38;22.10;98.20
18948;DHT22;9607;51.600;7.558;2022-08-21T09:39:06;22.20;98.00
18948;DHT22;9607;51.600;7.558;2022-08-21T09:41:35;22.30;96.20
18948;DHT22;9607;51.600;7.558;2022-08-21T09:44:03;22.40;95.10
18948;DHT22;9607;51.600;7.558;2022-08-21T09:46:30;22.50;95.60
18948;DHT22;9607;51.600;7.558;2022-08-21T09:48:59;22.60;94.50
18948;DHT22;9607;51.600;7.558;2022-08-21T09:51:31;22.80;95.00
18948;DHT22;9607;51.600;7.558;2022-08-21T09:54:14;22.80;93.30
18948;DHT22;9607;51.600;7.558;2022-08-21T09:56:53;22.80;92.60
18948;DHT22;9607;51.600;7.558;2022-08-21T09:59:38;22.80;93.00
18948;DHT22;9607;51.600;7.558;2022-08-21T10:02:22;22.90;93.20
18948;DHT22;9607;51.600;7.558;2022-08-21T10:04:51;22.90;93.20
18948;DHT22;9607;51.600;7.558;2022-08-21T10:07:22;22.80;92.40
18948;DHT22;9607;51.600;7.558;2022-08-21T10:10:00;22.70;93.70
18948;DHT22;9607;51.600;7.558;2022-08-21T10:12:31;22.70;94.40
18948;DHT22;9607;51.600;7.558;2022-08-21T10:15:05;22.70;94.70
18948;DHT22;9607;51.600;7.558;2022-08-21T10:17:42;22.70;94.90
18948;DHT22;9607;51.600;7.558;2022-08-21T10:20:16;22.70;94.80
18948;DHT22;9607;51.600;7.558;2022-08-21T10:22:52;22.70;94.40
18948;DHT22;9607;51.600;7.558;2022-08-21T10:25:31;22.70;93.30
18948;DHT22;9607;51.600;7.558;2022-08-21T10:28:04;22.80;94.10
18948;DHT22;9607;51.600;7.558;2022-08-21T10:30:40;22.80;92.80
18948;DHT22;9607;51.600;7.558;2022-08-21T10:33:16;22.90;93.30
18948;DHT22;9607;51.600;7.558;2022-08-21T10:35:51;22.90;93.50
18948;DHT22;9607;51.600;7.558;2022-08-21T10:38:56;23.00;93.00
18948;DHT22;9607;51.600;7.558;2022-08-21T10:41:39;23.00;92.30
18948;DHT22;9607;51.600;7.558;2022-08-21T10:44:20;23.10;91.80
18948;DHT22;9607;51.600;7.558;2022-08-21T10:46:52;23.10;91.70
18948;DHT22;9607;51.600;7.558;2022-08-21T10:49:26;23.10;91.20
18948;DHT22;9607;51.600;7.558;2022-08-21T10:55:08;23.10;90.00
18948;DHT22;9607;51.600;7.558;2022-08-21T10:57:41;23.10;90.30
18948;DHT22;9607;51.600;7.558;2022-08-21T11:00:12;23.20;88.90
18948;DHT22;9607;51.600;7.558;2022-08-21T11:02:44;23.20;89.30
18948;DHT22;9607;51.600;7.558;2022-08-21T11:05:15;23.20;89.60
18948;DHT22;9607;51.600;7.558;2022-08-21T11:07:47;23.20;91.10
18948;DHT22;9607;51.600;7.558;2022-08-21T11:10:21;23.30;91.30
18948;DHT22;9607;51.600;7.558;2022-08-21T11:12:52;23.50;90.50
18948;DHT22;9607;51.600;7.558;2022-08-21T11:15:29;23.50;86.10
18948;DHT22;9607;51.600;7.558;2022-08-21T11:18:04;23.50;83.30
18948;DHT22;9607;51.600;7.558;2022-08-21T11:20:40;23.50;82.20
18948;DHT22;9607;51.600;7.558;2022-08-21T11:23:13;23.40;84.40
18948;DHT22;9607;51.600;7.558;2022-08-21T11:25:46;23.50;84.50
18948;DHT22;9607;51.600;7.558;2022-08-21T11:28:20;23.50;84.60
18948;DHT22;9607;51.600;7.558;2022-08-21T11:30:55;23.50;83.50
18948;DHT22;9607;51.600;7.558;2022-08-21T11:33:37;23.60;82.30
18948;DHT22;9607;51.600;7.558;2022-08-21T11:36:13;23.70;81.00
18948;DHT22;9607;51.600;7.558;2022-08-21T11:38:44;23.70;79.70
18948;DHT22;9607;51.600;7.558;2022-08-21T11:41:25;23.90;79.30
18948;DHT22;9607;51.600;7.558;2022-08-21T11:44:03;24.00;78.60
18948;DHT22;9607;51.600;7.558;2022-08-21T11:46:40;24.00;75.90
18948;DHT22;9607;51.600;7.558;2022-08-21T11:49:25;24.10;75.80
18948;DHT22;9607;51.600;7.558;2022-08-21T11:52:07;24.10;77.40
18948;DHT22;9607;51.600;7.558;2022-08-21T11:54:38;24.20;77.80
18948;DHT22;9607;51.600;7.558;2022-08-21T11:57:14;24.30;74.50
18948;DHT22;9607;51.600;7.558;2022-08-21T11:59:46;24.40;75.00
18948;DHT22;9607;51.600;7.558;2022-08-21T12:02:19;24.50;74.20
18948;DHT22;9607;51.600;7.558;2022-08-21T12:04:51;24.40;74.00
18948;DHT22;9607;51.600;7.558;2022-08-21T12:07:31;24.50;74.60
18948;DHT22;9607;51.600;7.558;2022-08-21T12:09:58;24.60;73.20
18948;DHT22;9607;51.600;7.558;2022-08-21T12:12:29;24.70;71.60
18948;DHT22;9607;51.600;7.558;2022-08-21T12:15:15;24.70;70.90
18948;DHT22;9607;51.600;7.558;2022-08-21T12:17:54;24.80;70.30
18948;DHT22;9607;51.600;7.558;2022-08-21T12:20:43;25.20;68.60
18948;DHT22;9607;51.600;7.558;2022-08-21T12:23:26;25.80;66.10
18948;DHT22;9607;51.600;7.558;2022-08-21T12:26:14;25.80;62.80
18948;DHT22;9607;51.600;7.558;2022-08-21T12:28:45;25.60;61.30
18948;DHT22;9607;51.600;7.558;2022-08-21T12:31:21;25.50;62.10
18948;DHT22;9607;51.600;7.558;2022-08-21T12:33:52;25.50;62.70
18948;DHT22;9607;51.600;7.558;2022-08-21T12:36:23;25.40;61.70
18948;DHT22;9607;51.600;7.558;2022-08-21T12:38:55;25.30;62.70
18948;DHT22;9607;51.600;7.558;2022-08-21T12:41:27;25.20;63.90
18948;DHT22;9607;51.600;7.558;2022-08-21T12:44:00;25.10;62.40
18948;DHT22;9607;51.600;7.558;2022-08-21T12:46:34;24.90;64.30
18948;DHT22;9607;51.600;7.558;2022-08-21T12:49:08;24.90;63.50
18948;DHT22;9607;51.600;7.558;2022-08-21T12:51:48;24.80;63.80
18948;DHT22;9607;51.600;7.558;2022-08-21T12:54:26;24.70;63.90
18948;DHT22;9607;51.600;7.558;2022-08-21T12:56:59;24.80;64.90
18948;DHT22;9607;51.600;7.558;2022-08-21T12:59:28;25.00;64.70
18948;DHT22;9607;51.600;7.558;2022-08-21T13:01:56;25.10;63.20
18948;DHT22;9607;51.600;7.558;2022-08-21T13:04:31;25.10;62.60
18948;DHT22;9607;51.600;7.558;2022-08-21T13:06:59;25.20;62.40
18948;DHT22;9607;51.600;7.558;2022-08-21T13:09:28;25.20;62.70
18948;DHT22;9607;51.600;7.558;2022-08-21T13:11:56;25.10;63.20
18948;DHT22;9607;51.600;7.558;2022-08-21T13:14:30;25.10;64.90
18948;DHT22;9607;51.600;7.558;2022-08-21T13:17:00;25.10;63.00
18948;DHT22;9607;51.600;7.558;2022-08-21T13:19:30;25.10;64.40
18948;DHT22;9607;51.600;7.558;2022-08-21T13:21:58;25.10;65.00
18948;DHT22;9607;51.600;7.558;2022-08-21T13:24:28;25.10;64.20
18948;DHT22;9607;51.600;7.558;2022-08-21T13:26:56;25.20;64.00
18948;DHT22;9607;51.600;7.558;2022-08-21T13:29:30;25.30;64.90
18948;DHT22;9607;51.600;7.558;2022-08-21T13:31:59;25.30;63.80
18948;DHT22;9607;51.600;7.558;2022-08-21T13:34:31;25.40;63.60
18948;DHT22;9607;51.600;7.558;2022-08-21T13:36:59;25.40;63.20
18948;DHT22;9607;51.600;7.558;2022-08-21T13:39:27;25.40;63.90
18948;DHT22;9607;51.600;7.558;2022-08-21T13:41:55;25.40;62.80
18948;DHT22;9607;51.600;7.558;2022-08-21T13:44:34;25.40;62.80
18948;DHT22;9607;51.600;7.558;2022-08-21T13:47:03;25.50;63.40
18948;DHT22;9607;51.600;7.558;2022-08-21T13:49:34;25.60;62.70
18948;DHT22;9607;51.600;7.558;2022-08-21T13:52:03;25.60;62.60
18948;DHT22;9607;51.600;7.558;2022-08-21T13:54:35;25.70;63.40
18948;DHT22;9607;51.600;7.558;2022-08-21T13:57:02;25.70;64.40
18948;DHT22;9607;51.600;7.558;2022-08-21T13:59:32;25.80;63.70
18948;DHT22;9607;51.600;7.558;2022-08-21T14:02:02;25.90;64.30
18948;DHT22;9607;51.600;7.558;2022-08-21T14:04:38;26.00;62.70
18948;DHT22;9607;51.600;7.558;2022-08-21T14:07:15;26.10;63.10
18948;DHT22;9607;51.600;7.558;2022-08-21T14:09:45;26.10;63.20
18948;DHT22;9607;51.600;7.558;2022-08-21T14:12:14;26.20;62.00
18948;DHT22;9607;51.600;7.558;2022-08-21T14:14:43;26.20;62.30
18948;DHT22;9607;51.600;7.558;2022-08-21T14:17:13;26.20;60.70
18948;DHT22;9607;51.600;7.558;2022-08-21T14:19:43;26.10;61.70
18948;DHT22;9607;51.600;7.558;2022-08-21T14:22:29;26.20;61.30
18948;DHT22;9607;51.600;7.558;2022-08-21T14:25:01;26.20;59.30
18948;DHT22;9607;51.600;7.558;2022-08-21T14:27:30;26.20;58.30
18948;DHT22;9607;51.600;7.558;2022-08-21T14:30:01;26.20;58.80
18948;DHT22;9607;51.600;7.558;2022-08-21T14:32:35;26.20;58.70
18948;DHT22;9607;51.600;7.558;2022-08-21T14:35:03;26.20;58.90
18948;DHT22;9607;51.600;7.558;2022-08-21T14:37:30;26.10;59.10
18948;DHT22;9607;51.600;7.558;2022-08-21T14:39:57;26.00;58.70
18948;DHT22;9607;51.600;7.558;2022-08-21T14:42:24;25.90;57.80
18948;DHT22;9607;51.600;7.558;2022-08-21T14:44:54;25.80;57.80
18948;DHT22;9607;51.600;7.558;2022-08-21T14:47:23;25.80;57.60
18948;DHT22;9607;51.600;7.558;2022-08-21T14:49:50;25.90;58.00
18948;DHT22;9607;51.600;7.558;2022-08-21T14:52:19;26.10;58.10
18948;DHT22;9607;51.600;7.558;2022-08-21T14:54:46;26.20;57.70
18948;DHT22;9607;51.600;7.558;2022-08-21T14:57:13;26.30;56.90
18948;DHT22;9607;51.600;7.558;2022-08-21T14:59:40;26.20;56.30
18948;DHT22;9607;51.600;7.558;2022-08-21T15:02:08;26.10;56.60
18948;DHT22;9607;51.600;7.558;2022-08-21T15:04:36;26.10;56.60
18948;DHT22;9607;51.600;7.558;2022-08-21T15:07:04;26.00;56.90
18948;DHT22;9607;51.600;7.558;2022-08-21T15:09:31;26.00;57.70
18948;DHT22;9607;51.600;7.558;2022-08-21T15:12:00;26.00;57.80
18948;DHT22;9607;51.600;7.558;2022-08-21T15:14:30;26.00;58.00
18948;DHT22;9607;51.600;7.558;2022-08-21T15:16:58;26.00;58.30
18948;DHT22;9607;51.600;7.558;2022-08-21T15:19:25;26.10;58.30
18948;DHT22;9607;51.600;7.558;2022-08-21T15:21:54;26.20;58.10
18948;DHT22;9607;51.600;7.558;2022-08-21T15:24:21;26.30;58.10
18948;DHT22;9607;51.600;7.558;2022-08-21T15:26:48;26.50;57.80
18948;DHT22;9607;51.600;7.558;2022-08-21T15:29:15;26.50;57.70
18948;DHT22;9607;51.600;7.558;2022-08-21T15:31:52;26.70;58.50
18948;DHT22;9607;51.600;7.558;2022-08-21T15:34:20;26.90;57.60
18948;DHT22;9607;51.600;7.558;2022-08-21T15:36:46;26.90;57.10
18948;DHT22;9607;51.600;7.558;2022-08-21T15:39:15;26.90;57.00
18948;DHT22;9607;51.600;7.558;2022-08-21T15:41:42;27.00;56.90
18948;DHT22;9607;51.600;7.558;2022-08-21T15:44:09;27.10;57.20
18948;DHT22;9607;51.600;7.558;2022-08-21T15:46:37;27.20;56.60
18948;DHT22;9607;51.600;7.558;2022-08-21T15:49:04;27.30;57.70
18948;DHT22;9607;51.600;7.558;2022-08-21T15:51:32;27.50;56.90
18948;DHT22;9607;51.600;7.558;2022-08-21T15:53:59;28.40;56.80
18948;DHT22;9607;51.600;7.558;2022-08-21T15:56:33;30.00;55.70
18948;DHT22;9607;51.600;7.558;2022-08-21T15:59:03;31.50;51.80
18948;DHT22;9607;51.600;7.558;2022-08-21T16:01:30;32.30;49.60
18948;DHT22;9607;51.600;7.558;2022-08-21T16:03:58;33.50;47.20
18948;DHT22;9607;51.600;7.558;2022-08-21T16:06:25;34.80;46.10
18948;DHT22;9607;51.600;7.558;2022-08-21T16:08:52;36.20;41.10
18948;DHT22;9607;51.600;7.558;2022-08-21T16:11:19;37.40;40.10
18948;DHT22;9607;51.600;7.558;2022-08-21T16:13:48;38.70;37.80
18948;DHT22;9607;51.600;7.558;2022-08-21T16:16:19;39.60;35.40
18948;DHT22;9607;51.600;7.558;2022-08-21T16:18:47;39.60;34.20
18948;DHT22;9607;51.600;7.558;2022-08-21T16:21:15;39.00;35.00
18948;DHT22;9607;51.600;7.558;2022-08-21T16:23:42;38.20;35.30
18948;DHT22;9607;51.600;7.558;2022-08-21T16:26:11;37.50;35.80
18948;DHT22;9607;51.600;7.558;2022-08-21T16:28:41;37.20;37.40
18948;DHT22;9607;51.600;7.558;2022-08-21T16:31:09;37.40;36.80
18948;DHT22;9607;51.600;7.558;2022-08-21T16:33:39;37.50;35.90
18948;DHT22;9607;51.600;7.558;2022-08-21T16:36:08;37.10;35.30
18948;DHT22;9607;51.600;7.558;2022-08-21T16:38:35;36.20;35.70
18948;DHT22;9607;51.600;7.558;2022-08-21T16:41:03;35.20;36.70
18948;DHT22;9607;51.600;7.558;2022-08-21T16:43:31;34.10;38.10
18948;DHT22;9607;51.600;7.558;2022-08-21T16:45:58;33.10;39.40
18948;DHT22;9607;51.600;7.558;2022-08-21T16:48:27;32.30;41.10
18948;DHT22;9607;51.600;7.558;2022-08-21T16:50:54;31.40;42.30
18948;DHT22;9607;51.600;7.558;2022-08-21T16:53:21;30.70;43.60
18948;DHT22;9607;51.600;7.558;2022-08-21T16:55:49;30.00;45.00
18948;DHT22;9607;51.600;7.558;2022-08-21T16:58:20;29.60;46.10
18948;DHT22;9607;51.600;7.558;2022-08-21T17:00:48;29.40;47.00
18948;DHT22;9607;51.600;7.558;2022-08-21T17:03:17;29.10;47.60
18948;DHT22;9607;51.600;7.558;2022-08-21T17:05:47;29.00;48.10
18948;DHT22;9607;51.600;7.558;2022-08-21T17:08:14;28.90;48.70
18948;DHT22;9607;51.600;7.558;2022-08-21T17:10:42;28.80;49.00
18948;DHT22;9607;51.600;7.558;2022-08-21T17:13:10;28.70;49.00
18948;DHT22;9607;51.600;7.558;2022-08-21T17:15:37;28.50;49.70
18948;DHT22;9607;51.600;7.558;2022-08-21T17:18:06;28.40;49.90
18948;DHT22;9607;51.600;7.558;2022-08-21T17:20:35;28.20;50.60
18948;DHT22;9607;51.600;7.558;2022-08-21T17:23:03;28.00;51.10
18948;DHT22;9607;51.600;7.558;2022-08-21T17:25:31;27.90;51.80
18948;DHT22;9607;51.600;7.558;2022-08-21T17:27:58;27.90;52.60
18948;DHT22;9607;51.600;7.558;2022-08-21T17:30:25;27.80;52.50
18948;DHT22;9607;51.600;7.558;2022-08-21T17:32:54;27.60;52.30
18948;DHT22;9607;51.600;7.558;2022-08-21T17:35:23;27.40;52.30
18948;DHT22;9607;51.600;7.558;2022-08-21T17:37:50;27.20;52.90
18948;DHT22;9607;51.600;7.558;2022-08-21T17:40:19;27.00;53.50
18948;DHT22;9607;51.600;7.558;2022-08-21T17:42:47;26.80;54.20
18948;DHT22;9607;51.600;7.558;2022-08-21T17:45:18;26.60;55.10
18948;DHT22;9607;51.600;7.558;2022-08-21T17:47:45;26.40;55.80